Stena Germanica — SKPZ — position and weather

sailwx.info

Track history (hours):
 
Tides and Currents Weather Stations Pressure Air Temp Water Temp Dewpoint Dewpoint Depression Visibility Wind Speed Wind Dir Waves Ship Positions

Stena Germanica

Last reported at 2014-Dec-19 00:18 UTC. Time now 2014-Dec-19 04:42 UTC.
Position N 55°09' E 018°03'.

Length 176 m; draft 6.4 m.

Type: Ship (hazmat cat A). MMSI: 265292000.

Date/timePositionNaut miles runAvg speedWind from/ knotsBaromVisibWave heightAir tempDewpointWater temp
2014-Dec-19 00:18N 55°09' E 018°03'1317.4
2014-Dec-18 23:33N 55°02' E 018°22'1919.0
2014-Dec-18 22:33N 54°49' E 018°46'1616.4
2014-Dec-18 21:33N 54°32' E 018°50'1111.2
2014-Dec-18 20:33N 54°33' E 018°30'0 0.0
2014-Dec-18 19:32N 54°33' E 018°30'6 6.2
2014-Dec-18 18:33N 54°32' E 018°41'1414.2
2014-Dec-18 17:33N 54°45' E 018°52'1918.6
2014-Dec-18 16:33N 54°59' E 018°31'1918.6
2014-Dec-18 15:32N 55°09' E 018°03'4 0.3
2014-Dec-18 00:28N 55°07' E 018°09'1516.7
2014-Dec-17 23:33N 54°58' E 018°31'1717.4
2014-Dec-17 22:33N 54°45' E 018°51'1413.9
2014-Dec-17 21:33N 54°32' E 018°46'9 8.8
2014-Dec-17 20:31N 54°33' E 018°30'0 0.0
2014-Dec-17 19:31N 54°33' E 018°30'1 0.8
2014-Dec-17 18:33N 54°32' E 018°31'1212.3
2014-Dec-17 17:34N 54°35' E 018°52'1414.4
2014-Dec-17 16:33N 54°49' E 018°46'1716.6
2014-Dec-17 15:33N 55°01' E 018°26'1717.0
2014-Dec-17 14:33N 55°10' E 018°01'9 0.6
2014-Dec-16 23:33N 55°05' E 018°13'1616.4
2014-Dec-16 22:33N 54°55' E 018°36'1717.4
2014-Dec-16 21:33N 54°42' E 018°56'1414.0
2014-Dec-16 20:33N 54°32' E 018°40'6 5.7
2014-Dec-16 19:34N 54°33' E 018°30'0 0.0
2014-Dec-16 18:34N 54°33' E 018°30'7 6.8
2014-Dec-16 17:34N 54°32' E 018°42'1414.4
2014-Dec-16 16:34N 54°46' E 018°50'2019.7
2014-Dec-16 15:34N 55°00' E 018°27'2020.0
2014-Dec-16 14:33N 55°12' E 017°58'7 0.5
2014-Dec-16 00:07N 55°07' E 018°08'1018.3
2014-Dec-15 23:34N 55°01' E 018°23'1818.3
2014-Dec-15 22:34N 54°49' E 018°46'1515.2
2014-Dec-15 21:34N 54°34' E 018°51'1010.3
2014-Dec-15 20:33N 54°32' E 018°34'2 2.1
2014-Dec-15 19:31N 54°33' E 018°30'0 0.4
2014-Dec-15 18:33N 54°33' E 018°31'5 5.2
2014-Dec-15 17:34N 54°32' E 018°40'1413.5
2014-Dec-15 16:33N 54°43' E 018°54'1717.4
2014-Dec-15 15:33N 54°56' E 018°34'1818.0
2014-Dec-15 14:33N 55°06' E 018°08'1918.6
2014-Dec-15 13:33N 55°15' E 017°38'8 0.6
2014-Dec-15 00:24N 55°13' E 017°52'1416.4
2014-Dec-14 23:33N 55°05' E 018°12'1616.3
2014-Dec-14 22:33N 54°56' E 018°35'1716.8
2014-Dec-14 21:33N 54°43' E 018°54'1313.4
2014-Dec-14 20:33N 54°32' E 018°42'7 6.7
2014-Dec-14 19:33N 54°33' E 018°30'0 0.0
2014-Dec-14 18:33N 54°33' E 018°30'6 6.0
2014-Dec-14 17:34N 54°32' E 018°41'1413.6
2014-Dec-14 16:34N 54°44' E 018°52'1818.2
2014-Dec-14 15:34N 54°58' E 018°32'1818.4
2014-Dec-14 14:33N 55°08' E 018°05'7 0.4
2014-Dec-13 23:30N 55°05' E 018°15'1516.3
2014-Dec-13 22:33N 54°55' E 018°36'1717.2
2014-Dec-13 21:34N 54°42' E 018°56'1413.5
2014-Dec-13 20:34N 54°32' E 018°41'6 6.2
2014-Dec-13 19:33N 54°33' E 018°30'0 0.0
2014-Dec-13 18:33N 54°33' E 018°30'0 0.0
2014-Dec-13 17:33N 54°33' E 018°30'0 0.0
2014-Dec-13 16:33N 54°33' E 018°30'0 0.0
2014-Dec-13 15:33N 54°33' E 018°30'0 0.0
2014-Dec-13 14:33N 54°33' E 018°30'0 0.0
2014-Dec-13 13:33N 54°33' E 018°30'0 0.0
2014-Dec-13 12:33N 54°33' E 018°30'0 0.0
2014-Dec-13 11:33N 54°33' E 018°30'0 0.0
2014-Dec-13 10:33N 54°33' E 018°30'0 0.3
2014-Dec-13 09:33N 54°33' E 018°31'1 0.8
2014-Dec-13 08:31N 54°32' E 018°32'0 0.0
2014-Dec-13 07:31N 54°32' E 018°32'0 0.0
2014-Dec-13 06:31N 54°32' E 018°32'0 0.0
2014-Dec-13 05:31N 54°32' E 018°32'0 0.0
2014-Dec-13 04:31N 54°32' E 018°32'0 0.0
2014-Dec-13 03:31N 54°32' E 018°32'0 0.0
2014-Dec-13 02:31N 54°32' E 018°32'0 0.0
2014-Dec-13 01:31N 54°32' E 018°32'0 0.0
2014-Dec-13 00:31N 54°32' E 018°32'0 0.0
2014-Dec-12 23:31N 54°32' E 018°32'0 0.0
2014-Dec-12 22:31N 54°32' E 018°32'0 0.0
2014-Dec-12 21:31N 54°32' E 018°32'0 0.0
2014-Dec-12 20:33N 54°32' E 018°32'1 1.1
2014-Dec-12 19:31N 54°33' E 018°30'0 0.0
2014-Dec-12 18:33N 54°33' E 018°30'6 5.9
2014-Dec-12 17:33N 54°32' E 018°40'1313.3
2014-Dec-12 16:33N 54°43' E 018°54'1717.4
2014-Dec-12 15:33N 54°57' E 018°34'1918.8
2014-Dec-12 14:33N 55°08' E 018°08'9 0.7
2014-Dec-12 01:25N 55°11' E 017°53'1517.2
2014-Dec-12 00:34N 55°02' E 018°14'1818.0
2014-Dec-11 23:34N 54°51' E 018°39'1717.1
2014-Dec-11 22:34N 54°37' E 018°55'1414.1
2014-Dec-11 21:33N 54°32' E 018°32'1 1.1
2014-Dec-11 20:32N 54°33' E 018°30'6 6.2
2014-Dec-11 19:33N 54°32' E 018°41'1413.6
2014-Dec-11 18:33N 54°44' E 018°52'1918.6
2014-Dec-11 17:34N 54°58' E 018°30'1918.9
2014-Dec-11 16:33N 55°09' E 018°02'10 0.6
2014-Dec-11 01:27N 55°04' E 017°49'1517.4
2014-Dec-11 00:34N 54°58' E 018°14'1817.5
2014-Dec-10 23:33N 54°50' E 018°40'1615.8
2014-Dec-10 22:33N 54°36' E 018°54'1212.4
2014-Dec-10 21:33N 54°32' E 018°34'2 2.1
2014-Dec-10 20:32N 54°33' E 018°30'2 2.0
2014-Dec-10 19:33N 54°32' E 018°34'1212.2
2014-Dec-10 18:34N 54°36' E 018°53'1616.1
2014-Dec-10 17:34N 54°51' E 018°42'1817.6
2014-Dec-10 16:34N 55°02' E 018°19'10 0.6
2014-Dec-10 00:15N 55°08' E 018°05'1319.0
2014-Dec-09 23:33N 55°01' E 018°24'1919.4
2014-Dec-09 22:33N 54°47' E 018°48'1615.7
2014-Dec-09 21:33N 54°32' E 018°48'1010.0
2014-Dec-09 20:33N 54°33' E 018°30'0 0.0
2014-Dec-09 19:33N 54°33' E 018°30'1 0.7
2014-Dec-09 18:34N 54°32' E 018°31'1313.0
2014-Dec-09 17:34N 54°36' E 018°53'1818.1
2014-Dec-09 16:34N 54°53' E 018°42'2120.2
2014-Dec-09 15:31N 55°06' E 018°13'  
Track history (hours):
 
Tides and Currents Weather Stations Pressure Air Temp Water Temp Dewpoint Dewpoint Depression Visibility Wind Speed Wind Dir Waves Ship Positions

Stena Germanica

Last reported at 2014-Dec-19 00:18 UTC. Time now 2014-Dec-19 04:42 UTC.
Position N 55°09' E 018°03'.

Length 176 m; draft 6.4 m.

Type: Ship (hazmat cat A). MMSI: 265292000.

Date/timePositionNaut miles runAvg speedWind from/ knotsBaromVisibWave heightAir tempDewpointWater temp
2014-Dec-19 00:18N 55°09' E 018°03'1317.4
2014-Dec-18 23:33N 55°02' E 018°22'1919.0
2014-Dec-18 22:33N 54°49' E 018°46'1616.4
2014-Dec-18 21:33N 54°32' E 018°50'1111.2
2014-Dec-18 20:33N 54°33' E 018°30'0 0.0
2014-Dec-18 19:32N 54°33' E 018°30'6 6.2
2014-Dec-18 18:33N 54°32' E 018°41'1414.2
2014-Dec-18 17:33N 54°45' E 018°52'1918.6
2014-Dec-18 16:33N 54°59' E 018°31'1918.6
2014-Dec-18 15:32N 55°09' E 018°03'4 0.3
2014-Dec-18 00:28N 55°07' E 018°09'1516.7
2014-Dec-17 23:33N 54°58' E 018°31'1717.4
2014-Dec-17 22:33N 54°45' E 018°51'1413.9
2014-Dec-17 21:33N 54°32' E 018°46'9 8.8
2014-Dec-17 20:31N 54°33' E 018°30'0 0.0
2014-Dec-17 19:31N 54°33' E 018°30'1 0.8
2014-Dec-17 18:33N 54°32' E 018°31'1212.3
2014-Dec-17 17:34N 54°35' E 018°52'1414.4
2014-Dec-17 16:33N 54°49' E 018°46'1716.6
2014-Dec-17 15:33N 55°01' E 018°26'1717.0
2014-Dec-17 14:33N 55°10' E 018°01'9 0.6
2014-Dec-16 23:33N 55°05' E 018°13'1616.4
2014-Dec-16 22:33N 54°55' E 018°36'1717.4
2014-Dec-16 21:33N 54°42' E 018°56'1414.0
2014-Dec-16 20:33N 54°32' E 018°40'6 5.7
2014-Dec-16 19:34N 54°33' E 018°30'0 0.0
2014-Dec-16 18:34N 54°33' E 018°30'7 6.8
2014-Dec-16 17:34N 54°32' E 018°42'1414.4
2014-Dec-16 16:34N 54°46' E 018°50'2019.7
2014-Dec-16 15:34N 55°00' E 018°27'2020.0
2014-Dec-16 14:33N 55°12' E 017°58'7 0.5
2014-Dec-16 00:07N 55°07' E 018°08'1018.3
2014-Dec-15 23:34N 55°01' E 018°23'1818.3
2014-Dec-15 22:34N 54°49' E 018°46'1515.2
2014-Dec-15 21:34N 54°34' E 018°51'1010.3
2014-Dec-15 20:33N 54°32' E 018°34'2 2.1
2014-Dec-15 19:31N 54°33' E 018°30'0 0.4
2014-Dec-15 18:33N 54°33' E 018°31'5 5.2
2014-Dec-15 17:34N 54°32' E 018°40'1413.5
2014-Dec-15 16:33N 54°43' E 018°54'1717.4
2014-Dec-15 15:33N 54°56' E 018°34'1818.0
2014-Dec-15 14:33N 55°06' E 018°08'1918.6
2014-Dec-15 13:33N 55°15' E 017°38'8 0.6
2014-Dec-15 00:24N 55°13' E 017°52'1416.4
2014-Dec-14 23:33N 55°05' E 018°12'1616.3
2014-Dec-14 22:33N 54°56' E 018°35'1716.8
2014-Dec-14 21:33N 54°43' E 018°54'1313.4
2014-Dec-14 20:33N 54°32' E 018°42'7 6.7
2014-Dec-14 19:33N 54°33' E 018°30'0 0.0
2014-Dec-14 18:33N 54°33' E 018°30'6 6.0
2014-Dec-14 17:34N 54°32' E 018°41'1413.6
2014-Dec-14 16:34N 54°44' E 018°52'1818.2
2014-Dec-14 15:34N 54°58' E 018°32'1818.4
2014-Dec-14 14:33N 55°08' E 018°05'7 0.4
2014-Dec-13 23:30N 55°05' E 018°15'1516.3
2014-Dec-13 22:33N 54°55' E 018°36'1717.2
2014-Dec-13 21:34N 54°42' E 018°56'1413.5
2014-Dec-13 20:34N 54°32' E 018°41'6 6.2
2014-Dec-13 19:33N 54°33' E 018°30'0 0.0
2014-Dec-13 18:33N 54°33' E 018°30'0 0.0
2014-Dec-13 17:33N 54°33' E 018°30'0 0.0
2014-Dec-13 16:33N 54°33' E 018°30'0 0.0
2014-Dec-13 15:33N 54°33' E 018°30'0 0.0
2014-Dec-13 14:33N 54°33' E 018°30'0 0.0
2014-Dec-13 13:33N 54°33' E 018°30'0 0.0
2014-Dec-13 12:33N 54°33' E 018°30'0 0.0
2014-Dec-13 11:33N 54°33' E 018°30'0 0.0
2014-Dec-13 10:33N 54°33' E 018°30'0 0.3
2014-Dec-13 09:33N 54°33' E 018°31'1 0.8
2014-Dec-13 08:31N 54°32' E 018°32'0 0.0
2014-Dec-13 07:31N 54°32' E 018°32'0 0.0
2014-Dec-13 06:31N 54°32' E 018°32'0 0.0
2014-Dec-13 05:31N 54°32' E 018°32'0 0.0
2014-Dec-13 04:31N 54°32' E 018°32'0 0.0
2014-Dec-13 03:31N 54°32' E 018°32'0 0.0
2014-Dec-13 02:31N 54°32' E 018°32'0 0.0
2014-Dec-13 01:31N 54°32' E 018°32'0 0.0
2014-Dec-13 00:31N 54°32' E 018°32'0 0.0
2014-Dec-12 23:31N 54°32' E 018°32'0 0.0
2014-Dec-12 22:31N 54°32' E 018°32'0 0.0
2014-Dec-12 21:31N 54°32' E 018°32'0 0.0
2014-Dec-12 20:33N 54°32' E 018°32'1 1.1
2014-Dec-12 19:31N 54°33' E 018°30'0 0.0
2014-Dec-12 18:33N 54°33' E 018°30'6 5.9
2014-Dec-12 17:33N 54°32' E 018°40'1313.3
2014-Dec-12 16:33N 54°43' E 018°54'1717.4
2014-Dec-12 15:33N 54°57' E 018°34'1918.8
2014-Dec-12 14:33N 55°08' E 018°08'9 0.7
2014-Dec-12 01:25N 55°11' E 017°53'1517.2
2014-Dec-12 00:34N 55°02' E 018°14'1818.0
2014-Dec-11 23:34N 54°51' E 018°39'1717.1
2014-Dec-11 22:34N 54°37' E 018°55'1414.1
2014-Dec-11 21:33N 54°32' E 018°32'1 1.1
2014-Dec-11 20:32N 54°33' E 018°30'6 6.2
2014-Dec-11 19:33N 54°32' E 018°41'1413.6
2014-Dec-11 18:33N 54°44' E 018°52'1918.6
2014-Dec-11 17:34N 54°58' E 018°30'1918.9
2014-Dec-11 16:33N 55°09' E 018°02'10 0.6
2014-Dec-11 01:27N 55°04' E 017°49'1517.4
2014-Dec-11 00:34N 54°58' E 018°14'1817.5
2014-Dec-10 23:33N 54°50' E 018°40'1615.8
2014-Dec-10 22:33N 54°36' E 018°54'1212.4
2014-Dec-10 21:33N 54°32' E 018°34'2 2.1
2014-Dec-10 20:32N 54°33' E 018°30'2 2.0
2014-Dec-10 19:33N 54°32' E 018°34'1212.2
2014-Dec-10 18:34N 54°36' E 018°53'1616.1
2014-Dec-10 17:34N 54°51' E 018°42'1817.6
2014-Dec-10 16:34N 55°02' E 018°19'10 0.6
2014-Dec-10 00:15N 55°08' E 018°05'1319.0
2014-Dec-09 23:33N 55°01' E 018°24'1919.4
2014-Dec-09 22:33N 54°47' E 018°48'1615.7
2014-Dec-09 21:33N 54°32' E 018°48'1010.0
2014-Dec-09 20:33N 54°33' E 018°30'0 0.0
2014-Dec-09 19:33N 54°33' E 018°30'1 0.7
2014-Dec-09 18:34N 54°32' E 018°31'1313.0
2014-Dec-09 17:34N 54°36' E 018°53'1818.1
2014-Dec-09 16:34N 54°53' E 018°42'2120.2
2014-Dec-09 15:31N 55°06' E 018°13'  

Dump ship's entire track history